createdAt,value
2018-04-28T00:00:55.166Z,17.61
2018-04-28T00:03:23.266Z,17.56
2018-04-28T00:05:51.429Z,17.49
2018-04-28T00:08:24.352Z,17.58
2018-04-28T00:10:52.469Z,17.57
2018-04-28T00:13:20.651Z,17.54
2018-04-28T00:15:48.948Z,17.50
2018-04-28T00:18:19.894Z,17.46
2018-04-28T00:20:48.023Z,17.48
2018-04-28T00:23:16.176Z,17.41
2018-04-28T00:25:49.996Z,17.41
2018-04-28T00:28:27.429Z,17.31
2018-04-28T00:30:59.122Z,17.39
2018-04-28T00:33:29.644Z,17.38
2018-04-28T00:36:07.450Z,17.36
2018-04-28T00:38:37.773Z,17.31
2018-04-28T00:41:05.949Z,17.26
2018-04-28T00:43:34.030Z,17.23
2018-04-28T00:46:08.056Z,17.21
2018-04-28T00:48:42.488Z,17.15
2018-04-28T00:51:25.401Z,17.14
2018-04-28T00:53:56.240Z,17.10
2018-04-28T00:56:24.353Z,16.65
2018-04-28T00:58:55.297Z,16.49
2018-04-28T01:01:35.002Z,16.33
2018-04-28T01:04:12.726Z,16.71
2018-04-28T01:06:40.816Z,16.97
2018-04-28T01:09:10.682Z,16.44
2018-04-28T01:11:42.596Z,16.69
2018-04-28T01:14:14.415Z,16.61
2018-04-28T01:16:55.098Z,16.81
2018-04-28T01:19:34.542Z,17.00
2018-04-28T01:22:06.461Z,17.15
2018-04-28T01:24:36.432Z,17.17
2018-04-28T01:27:09.343Z,16.98
2018-04-28T01:29:50.143Z,16.88
2018-04-28T01:32:33.896Z,16.30
2018-04-28T01:35:06.023Z,16.42
2018-04-28T01:37:39.797Z,16.68
2018-04-28T01:40:12.830Z,16.93
2018-04-28T01:45:49.249Z,16.90
2018-04-28T01:48:25.010Z,16.85
2018-04-28T01:57:07.404Z,14.91
2018-04-28T02:03:00.634Z,15.63
2018-04-28T02:08:34.532Z,15.89
2018-04-28T02:11:03.610Z,15.62
2018-04-28T02:13:40.292Z,15.82
2018-04-28T02:16:13.286Z,16.30
2018-04-28T02:21:54.790Z,16.48
2018-04-28T02:24:38.710Z,16.55
2018-04-28T02:27:06.850Z,16.56
2018-04-28T02:29:40.770Z,16.56
2018-04-28T02:32:12.738Z,16.59
2018-04-28T02:34:51.658Z,16.55
2018-04-28T02:37:27.766Z,16.59
2018-04-28T02:43:02.551Z,16.65
2018-04-28T02:45:37.516Z,16.36
2018-04-28T02:48:12.224Z,16.46
2018-04-28T02:50:46.438Z,16.33
2018-04-28T02:53:27.971Z,16.49
2018-04-28T02:56:07.778Z,16.60
2018-04-28T02:58:36.786Z,16.61
2018-04-28T03:04:07.194Z,16.60
2018-04-28T03:06:45.234Z,16.59
2018-04-28T03:09:13.335Z,16.44
2018-04-28T03:11:45.433Z,15.50
2018-04-28T03:14:18.337Z,16.06
2018-04-28T03:16:46.448Z,16.31
2018-04-28T03:19:15.434Z,16.40
2018-04-28T03:21:51.222Z,16.42
2018-04-28T03:27:32.916Z,15.88
2018-04-28T03:30:02.788Z,16.52
2018-04-28T03:32:42.694Z,16.59
2018-04-28T03:35:18.488Z,16.57
2018-04-28T03:38:01.473Z,16.59
2018-04-28T03:40:29.565Z,16.62
2018-04-28T03:43:02.475Z,16.54
2018-04-28T03:45:34.864Z,16.50
2018-04-28T03:48:16.534Z,16.50
2018-04-28T03:53:53.345Z,16.51
2018-04-28T03:56:38.935Z,16.50
2018-04-28T03:59:18.624Z,16.63
2018-04-28T04:01:58.866Z,16.66
2018-04-28T04:04:29.603Z,16.70
2018-04-28T04:07:01.382Z,16.71
2018-04-28T04:09:32.155Z,16.74
2018-04-28T04:12:22.018Z,16.79
2018-04-28T04:18:16.578Z,17.19
2018-04-28T04:20:57.266Z,17.29
2018-04-28T04:27:00.644Z,17.05
2018-04-28T04:29:35.510Z,17.28
2018-04-28T04:32:05.449Z,17.35
2018-04-28T04:37:56.469Z,14.99
2018-04-28T04:43:51.351Z,14.77
2018-04-28T04:49:33.099Z,14.91
2018-04-28T04:55:22.578Z,15.45
2018-04-28T04:57:57.368Z,15.14
2018-04-28T05:03:49.168Z,16.16
2018-04-28T05:09:35.750Z,16.79
2018-04-28T05:12:15.423Z,17.13
2018-04-28T05:18:09.118Z,17.56
2018-04-28T05:23:59.768Z,17.53
2018-04-28T05:26:46.438Z,17.97
2018-04-28T05:29:21.342Z,18.25
2018-04-28T05:35:22.002Z,18.94
2018-04-28T05:37:59.689Z,19.06
2018-04-28T05:40:34.407Z,19.26
2018-04-28T05:43:13.649Z,18.92
2018-04-28T05:49:16.082Z,18.44
2018-04-28T05:52:07.825Z,18.51
2018-04-28T05:54:37.737Z,18.57
2018-04-28T06:00:36.181Z,19.32
2018-04-28T06:03:19.830Z,19.51
2018-04-28T06:08:55.270Z,20.40
2018-04-28T06:11:35.098Z,20.68
2018-04-28T06:14:09.229Z,20.49
2018-04-28T06:16:52.417Z,21.00
2018-04-28T06:19:32.419Z,20.38
2018-04-28T06:22:00.447Z,21.38
2018-04-28T06:24:28.500Z,22.04
2018-04-28T06:26:57.588Z,21.48
2018-04-28T06:29:25.612Z,21.90
2018-04-28T06:31:53.747Z,21.82
2018-04-28T06:34:21.934Z,21.11
2018-04-28T06:36:50.055Z,20.78
2018-04-28T06:39:18.173Z,21.56
2018-04-28T06:41:46.233Z,21.60
2018-04-28T06:44:14.479Z,22.17
2018-04-28T06:46:42.634Z,22.23
2018-04-28T06:49:10.766Z,22.73
2018-04-28T06:51:38.837Z,22.28
2018-04-28T06:54:06.874Z,23.05
2018-04-28T06:56:34.998Z,23.46
2018-04-28T06:59:03.143Z,23.87
2018-04-28T07:01:31.255Z,23.96
2018-04-28T07:04:00.420Z,23.97
2018-04-28T07:06:28.544Z,23.60
2018-04-28T07:08:56.595Z,24.09
2018-04-28T07:11:24.716Z,24.56
2018-04-28T07:13:52.847Z,25.36
2018-04-28T07:16:21.022Z,25.43
2018-04-28T07:18:49.027Z,23.89
2018-04-28T07:21:17.093Z,24.17
2018-04-28T07:23:45.163Z,25.28
2018-04-28T07:26:13.314Z,25.58
2018-04-28T07:28:41.427Z,24.49
2018-04-28T07:31:09.521Z,25.14
2018-04-28T07:33:37.657Z,25.40
2018-04-28T07:36:05.741Z,24.77
2018-04-28T07:38:33.843Z,25.22
2018-04-28T07:41:01.915Z,26.62
2018-04-28T07:43:30.099Z,26.29
2018-04-28T07:45:58.477Z,26.46
2018-04-28T07:48:26.592Z,27.14
2018-04-28T07:50:54.775Z,26.83
2018-04-28T07:53:22.869Z,26.91
2018-04-28T07:55:50.867Z,26.84
2018-04-28T07:58:18.950Z,28.23
2018-04-28T08:00:46.954Z,28.50
2018-04-28T08:03:15.033Z,28.33
2018-04-28T08:05:43.152Z,29.69
2018-04-28T08:08:11.263Z,29.96
2018-04-28T08:10:39.415Z,30.02
2018-04-28T08:13:07.516Z,29.83
2018-04-28T08:15:35.654Z,28.30
2018-04-28T08:18:03.765Z,28.88
2018-04-28T08:20:31.929Z,28.89
2018-04-28T08:23:00.023Z,29.37
2018-04-28T08:25:28.126Z,30.74
2018-04-28T08:27:56.245Z,30.15
2018-04-28T08:30:24.343Z,30.17
2018-04-28T08:32:52.427Z,29.99
2018-04-28T08:35:20.493Z,29.88
2018-04-28T08:37:48.691Z,30.28
2018-04-28T08:40:16.839Z,31.59
2018-04-28T08:42:44.969Z,32.37
2018-04-28T08:45:13.018Z,30.99
2018-04-28T08:47:41.671Z,31.36
2018-04-28T08:50:09.826Z,30.03
2018-04-28T08:52:37.844Z,30.87
2018-04-28T08:55:05.971Z,31.18
2018-04-28T08:57:34.027Z,31.62
2018-04-28T09:00:13.886Z,31.01
2018-04-28T09:02:41.946Z,31.61
2018-04-28T09:05:10.506Z,33.05
2018-04-28T09:07:39.526Z,32.78
2018-04-28T09:10:07.629Z,31.42
2018-04-28T09:12:35.640Z,30.88
2018-04-28T09:15:03.628Z,30.38
2018-04-28T09:17:31.703Z,32.24
2018-04-28T09:19:59.643Z,32.41
2018-04-28T09:22:27.646Z,31.33
2018-04-28T09:24:55.628Z,32.13
2018-04-28T09:27:23.770Z,32.16
2018-04-28T09:29:51.850Z,32.60
2018-04-28T09:32:19.829Z,32.95
2018-04-28T09:34:47.866Z,33.36
2018-04-28T09:37:15.881Z,33.57
2018-04-28T09:39:43.941Z,33.17
2018-04-28T09:42:11.986Z,34.00
2018-04-28T09:44:40.019Z,33.33
2018-04-28T09:47:08.071Z,33.32
2018-04-28T09:49:36.540Z,32.34
2018-04-28T09:52:04.564Z,33.83
2018-04-28T09:54:32.605Z,33.99
2018-04-28T09:57:00.709Z,34.73
2018-04-28T09:59:28.788Z,33.74
2018-04-28T10:01:58.836Z,33.85
2018-04-28T10:04:26.925Z,34.28
2018-04-28T10:06:55.004Z,34.98
2018-04-28T10:09:23.013Z,33.53
2018-04-28T10:11:51.067Z,34.17
2018-04-28T10:14:19.072Z,35.41
2018-04-28T10:16:47.135Z,33.09
2018-04-28T10:19:15.193Z,32.65
2018-04-28T10:21:43.194Z,32.35
2018-04-28T10:24:11.243Z,33.72
2018-04-28T10:26:39.258Z,34.61
2018-04-28T10:29:07.271Z,34.14
2018-04-28T10:31:35.352Z,32.51
2018-04-28T10:34:03.431Z,31.52
2018-04-28T10:36:31.507Z,30.92
2018-04-28T10:38:59.544Z,32.09
2018-04-28T10:41:27.604Z,31.67
2018-04-28T10:43:55.681Z,33.44
2018-04-28T10:46:23.811Z,33.22
2018-04-28T10:48:51.883Z,33.62
2018-04-28T10:51:20.183Z,33.43
2018-04-28T10:53:48.198Z,33.80
2018-04-28T10:56:16.201Z,32.97
2018-04-28T10:58:44.216Z,31.96
2018-04-28T11:01:12.352Z,33.26
2018-04-28T11:03:40.457Z,32.38
2018-04-28T11:06:08.557Z,33.44
2018-04-28T11:08:36.689Z,33.27
2018-04-28T11:11:04.703Z,33.66
2018-04-28T11:13:32.741Z,31.87
2018-04-28T11:16:00.745Z,31.60
2018-04-28T11:18:28.763Z,33.00
2018-04-28T11:20:56.895Z,33.10
2018-04-28T11:23:24.851Z,33.83
2018-04-28T11:25:52.870Z,32.44
2018-04-28T11:28:20.878Z,33.17
2018-04-28T11:30:48.929Z,33.11
2018-04-28T11:33:16.915Z,34.00
2018-04-28T11:35:44.913Z,34.52
2018-04-28T11:38:13.091Z,32.85
2018-04-28T11:40:41.255Z,33.63
2018-04-28T11:43:09.330Z,34.40
2018-04-28T11:45:37.595Z,34.50
2018-04-28T11:48:05.682Z,32.60
2018-04-28T11:50:33.642Z,31.94
2018-04-28T11:53:02.015Z,31.61
2018-04-28T11:55:29.978Z,31.48
2018-04-28T11:57:58.016Z,30.09
2018-04-28T12:00:26.107Z,29.58
2018-04-28T12:02:54.152Z,30.07
2018-04-28T12:05:22.212Z,29.98
2018-04-28T12:07:50.255Z,31.00
2018-04-28T12:10:18.398Z,31.33
2018-04-28T12:12:46.400Z,30.78
2018-04-28T12:15:14.477Z,32.38
2018-04-28T12:17:42.522Z,33.07
2018-04-28T12:20:10.521Z,32.34
2018-04-28T12:22:38.638Z,31.80
2018-04-28T12:25:06.700Z,31.30
2018-04-28T12:27:34.773Z,31.49
2018-04-28T12:30:02.851Z,31.16
2018-04-28T12:32:30.899Z,30.29
2018-04-28T12:34:59.019Z,30.63
2018-04-28T12:37:27.141Z,29.98
2018-04-28T12:39:55.236Z,30.43
2018-04-28T12:42:23.315Z,31.36
2018-04-28T12:44:51.372Z,30.53
2018-04-28T12:47:19.389Z,30.85
2018-04-28T12:49:47.418Z,30.89
2018-04-28T12:52:15.474Z,30.55
2018-04-28T12:54:43.967Z,30.72
2018-04-28T12:57:11.962Z,30.36
2018-04-28T12:59:39.904Z,30.63
2018-04-28T13:02:08.048Z,30.50
2018-04-28T13:04:36.029Z,31.54
2018-04-28T13:07:04.074Z,32.09
2018-04-28T13:09:32.117Z,31.63
2018-04-28T13:12:00.058Z,31.23
2018-04-28T13:14:28.079Z,31.97
2018-04-28T13:16:56.057Z,31.93
2018-04-28T13:19:24.070Z,32.23
2018-04-28T13:21:52.070Z,31.81
2018-04-28T13:24:20.131Z,30.89
2018-04-28T13:26:48.202Z,31.50
2018-04-28T13:29:16.366Z,31.65
2018-04-28T13:31:44.287Z,31.94
2018-04-28T13:34:12.397Z,31.75
2018-04-28T13:36:40.513Z,31.45
2018-04-28T13:39:08.594Z,31.63
2018-04-28T13:41:36.622Z,31.33
2018-04-28T13:44:04.644Z,30.08
2018-04-28T13:46:32.683Z,30.23
2018-04-28T13:49:00.766Z,30.21
2018-04-28T13:51:28.919Z,30.09
2018-04-28T13:53:56.942Z,30.03
2018-04-28T13:56:25.256Z,30.48
2018-04-28T13:58:53.296Z,30.22
2018-04-28T14:01:21.302Z,30.28
2018-04-28T14:03:49.356Z,30.71
2018-04-28T14:06:17.499Z,29.82
2018-04-28T14:08:45.557Z,29.68
2018-04-28T14:11:13.568Z,30.07
2018-04-28T14:13:41.506Z,29.26
2018-04-28T14:16:09.636Z,29.62
2018-04-28T14:18:37.686Z,29.16
2018-04-28T14:21:05.839Z,29.18
2018-04-28T14:23:33.783Z,29.48
2018-04-28T14:26:01.872Z,28.90
2018-04-28T14:28:29.874Z,28.40
2018-04-28T14:30:57.884Z,29.11
2018-04-28T14:33:25.905Z,28.25
2018-04-28T14:35:53.963Z,28.55
2018-04-28T14:38:22.015Z,28.75
2018-04-28T14:40:49.999Z,29.19
2018-04-28T14:43:18.009Z,28.79
2018-04-28T14:45:45.981Z,28.78
2018-04-28T14:48:15.287Z,28.46
2018-04-28T14:50:43.343Z,27.89
2018-04-28T14:53:11.334Z,27.18
2018-04-28T14:55:39.422Z,26.59
2018-04-28T14:58:07.739Z,26.47
2018-04-28T15:00:35.789Z,27.07
2018-04-28T15:03:03.788Z,27.04
2018-04-28T15:05:31.813Z,26.83
2018-04-28T15:07:59.835Z,26.54
2018-04-28T15:10:27.881Z,26.75
2018-04-28T15:12:55.972Z,26.36
2018-04-28T15:15:23.979Z,25.98
2018-04-28T15:17:51.944Z,25.64
2018-04-28T15:20:19.992Z,26.07
2018-04-28T15:22:48.044Z,26.08
2018-04-28T15:25:16.023Z,25.97
2018-04-28T15:27:44.120Z,25.67
2018-04-28T15:30:12.139Z,25.73
2018-04-28T15:32:40.158Z,25.37
2018-04-28T15:35:08.236Z,25.22
2018-04-28T15:37:36.294Z,25.21
2018-04-28T15:40:04.353Z,24.67
2018-04-28T15:42:32.363Z,24.37
2018-04-28T15:45:00.410Z,24.66
2018-04-28T15:47:28.408Z,24.83
2018-04-28T15:49:56.469Z,24.75
2018-04-28T15:52:24.522Z,24.63
2018-04-28T15:54:52.552Z,24.44
2018-04-28T15:57:20.549Z,24.69
2018-04-28T15:59:48.947Z,24.63
2018-04-28T16:02:16.935Z,24.20
2018-04-28T16:04:45.010Z,23.25
2018-04-28T16:07:13.073Z,23.24
2018-04-28T16:09:41.152Z,22.35
2018-04-28T16:12:09.209Z,22.99
2018-04-28T16:14:37.265Z,23.12
2018-04-28T16:17:05.358Z,23.31
2018-04-28T16:19:33.438Z,23.69
2018-04-28T16:22:01.465Z,23.95
2018-04-28T16:24:29.483Z,23.68
2018-04-28T16:26:57.555Z,23.79
2018-04-28T16:29:25.541Z,23.37
2018-04-28T16:31:53.588Z,23.35
2018-04-28T16:34:21.578Z,23.67
2018-04-28T16:36:49.636Z,23.74
2018-04-28T16:39:17.645Z,23.75
2018-04-28T16:41:45.711Z,23.54
2018-04-28T16:44:13.837Z,23.63
2018-04-28T16:46:41.826Z,23.32
2018-04-28T16:49:09.840Z,23.56
2018-04-28T16:51:38.039Z,23.72
2018-04-28T16:54:06.146Z,23.55
2018-04-28T16:56:34.174Z,23.52
2018-04-28T16:59:02.314Z,23.45
2018-04-28T17:01:30.962Z,23.10
2018-04-28T17:03:58.981Z,23.32
2018-04-28T17:06:27.164Z,23.32
2018-04-28T17:08:55.110Z,23.11
2018-04-28T17:11:23.109Z,23.01
2018-04-28T17:13:51.236Z,22.84
2018-04-28T17:16:19.201Z,22.60
2018-04-28T17:18:47.206Z,22.93
2018-04-28T17:21:15.234Z,23.10
2018-04-28T17:23:43.239Z,23.04
2018-04-28T17:26:11.302Z,23.12
2018-04-28T17:28:39.376Z,22.67
2018-04-28T17:31:07.461Z,22.88
2018-04-28T17:33:35.459Z,22.46
2018-04-28T17:36:03.496Z,22.21
2018-04-28T17:38:31.501Z,22.53
2018-04-28T17:40:59.640Z,22.45
2018-04-28T17:43:27.674Z,22.71
2018-04-28T17:45:55.779Z,22.46
2018-04-28T17:48:24.181Z,22.36
2018-04-28T17:50:52.169Z,22.68
2018-04-28T17:53:20.269Z,22.83
2018-04-28T17:55:48.284Z,22.92
2018-04-28T17:58:16.286Z,22.88
2018-04-28T18:00:44.288Z,22.68
2018-04-28T18:03:12.634Z,22.41
2018-04-28T18:05:40.581Z,22.64
2018-04-28T18:08:08.635Z,22.80
2018-04-28T18:10:36.646Z,22.50
2018-04-28T18:13:04.665Z,22.40
2018-04-28T18:15:32.681Z,22.54
2018-04-28T18:18:00.584Z,22.29
2018-04-28T18:20:28.593Z,22.06
2018-04-28T18:22:56.649Z,22.41
2018-04-28T18:25:24.646Z,22.58
2018-04-28T18:27:52.612Z,22.66
2018-04-28T18:30:20.641Z,22.67
2018-04-28T18:32:48.615Z,22.69
2018-04-28T18:35:16.673Z,22.61
2018-04-28T18:37:44.797Z,22.44
2018-04-28T18:40:12.811Z,22.42
2018-04-28T18:42:40.805Z,22.40
2018-04-28T18:45:08.791Z,22.22
2018-04-28T18:47:36.830Z,22.28
2018-04-28T18:50:04.880Z,22.29
2018-04-28T18:52:32.894Z,20.86
2018-04-28T18:55:00.913Z,20.44
2018-04-28T18:57:28.879Z,20.96
2018-04-28T18:59:56.972Z,20.73
2018-04-28T19:02:24.967Z,20.52
2018-04-28T19:04:53.357Z,20.29
2018-04-28T19:07:21.347Z,20.32
2018-04-28T19:09:49.416Z,20.56
2018-04-28T19:12:17.457Z,20.30
2018-04-28T19:14:45.451Z,20.05
2018-04-28T19:17:13.463Z,20.30
2018-04-28T19:19:41.554Z,20.58
2018-04-28T19:22:09.651Z,20.21
2018-04-28T19:24:37.562Z,20.15
2018-04-28T19:27:05.673Z,19.91
2018-04-28T19:29:33.643Z,19.79
2018-04-28T19:32:01.650Z,20.24
2018-04-28T19:34:29.713Z,20.77
2018-04-28T19:36:57.766Z,20.98
2018-04-28T19:39:26.799Z,21.07
2018-04-28T19:41:54.845Z,20.27
2018-04-28T19:44:22.857Z,19.74
2018-04-28T19:46:50.907Z,19.50
2018-04-28T19:49:18.914Z,19.53
2018-04-28T19:51:46.883Z,19.86
2018-04-28T19:54:14.993Z,19.98
2018-04-28T19:56:42.985Z,20.15
2018-04-28T19:59:11.059Z,19.68
2018-04-28T20:01:39.065Z,19.79
2018-04-28T20:04:07.173Z,19.06
2018-04-28T20:06:35.437Z,19.28
2018-04-28T20:09:03.476Z,18.92
2018-04-28T20:11:31.471Z,19.66
2018-04-28T20:13:59.573Z,19.30
2018-04-28T20:16:27.663Z,18.88
2018-04-28T20:18:55.709Z,19.06
2018-04-28T20:21:23.827Z,19.34
2018-04-28T20:24:03.594Z,19.50
2018-04-28T20:26:31.565Z,19.52
2018-04-28T20:28:59.586Z,19.79
2018-04-28T20:31:27.649Z,20.20
2018-04-28T20:33:55.688Z,20.12
2018-04-28T20:36:23.735Z,19.94
2018-04-28T20:38:51.734Z,20.21
2018-04-28T20:41:19.767Z,19.30
2018-04-28T20:43:47.823Z,19.18
2018-04-28T20:46:15.843Z,19.26
2018-04-28T20:48:43.798Z,19.14
2018-04-28T20:51:11.834Z,19.41
2018-04-28T20:53:39.877Z,19.74
2018-04-28T20:56:07.796Z,20.01
2018-04-28T20:58:35.834Z,19.99
2018-04-28T21:01:04.082Z,20.05
2018-04-28T21:03:32.219Z,19.54
2018-04-28T21:06:00.190Z,20.01
2018-04-28T21:08:28.596Z,19.79
2018-04-28T21:10:56.605Z,19.90
2018-04-28T21:13:24.620Z,20.03
2018-04-28T21:15:52.700Z,19.51
2018-04-28T21:18:20.770Z,19.72
2018-04-28T21:20:48.823Z,19.83
2018-04-28T21:23:16.822Z,19.94
2018-04-28T21:25:44.878Z,19.51
2018-04-28T21:28:12.930Z,19.53
2018-04-28T21:30:41.003Z,19.89
2018-04-28T21:33:08.998Z,19.52
2018-04-28T21:35:37.055Z,18.93
2018-04-28T21:38:05.046Z,19.03
2018-04-28T21:40:33.056Z,19.35
2018-04-28T21:43:01.042Z,19.67
2018-04-28T21:45:29.102Z,19.85
2018-04-28T21:47:57.151Z,19.90
2018-04-28T21:50:25.183Z,19.50
2018-04-28T21:52:53.205Z,19.02
2018-04-28T21:55:21.226Z,18.37
2018-04-28T21:57:49.273Z,18.36
2018-04-28T22:00:17.286Z,18.54
2018-04-28T22:02:45.268Z,18.65
2018-04-28T22:05:13.270Z,19.00
2018-04-28T22:07:41.295Z,18.55
2018-04-28T22:10:09.436Z,18.53
2018-04-28T22:12:37.452Z,18.99
2018-04-28T22:15:05.542Z,19.24
2018-04-28T22:17:33.588Z,19.31
2018-04-28T22:20:01.544Z,19.37
2018-04-28T22:22:29.582Z,19.41
2018-04-28T22:24:57.616Z,19.29
2018-04-28T22:27:25.679Z,19.33
2018-04-28T22:29:53.746Z,19.11
2018-04-28T22:32:21.770Z,18.95
2018-04-28T22:34:49.768Z,18.83
2018-04-28T22:37:17.813Z,18.20
2018-04-28T22:39:45.820Z,18.41
2018-04-28T22:42:13.873Z,18.90
2018-04-28T22:44:41.921Z,18.93
2018-04-28T22:47:09.876Z,18.81
2018-04-28T22:49:37.902Z,18.00
2018-04-28T22:52:05.922Z,18.61
2018-04-28T22:54:33.905Z,18.17
2018-04-28T22:57:01.892Z,18.40
2018-04-28T22:59:29.989Z,18.59
2018-04-28T23:01:58.060Z,18.57
2018-04-28T23:04:25.992Z,18.67
2018-04-28T23:06:54.088Z,18.76
2018-04-28T23:09:22.063Z,18.89
2018-04-28T23:11:50.583Z,18.33
2018-04-28T23:14:18.604Z,18.09
2018-04-28T23:16:46.588Z,18.05
2018-04-28T23:19:14.575Z,18.36
2018-04-28T23:21:42.577Z,18.32
2018-04-28T23:24:10.535Z,17.98
2018-04-28T23:26:38.521Z,17.88
2018-04-28T23:29:06.523Z,17.99
2018-04-28T23:31:34.530Z,17.68
2018-04-28T23:34:02.582Z,17.53
2018-04-28T23:36:30.672Z,17.46
2018-04-28T23:38:58.638Z,17.37
2018-04-28T23:41:26.624Z,17.88
2018-04-28T23:43:54.655Z,17.76
2018-04-28T23:46:22.692Z,17.95
2018-04-28T23:48:50.660Z,18.22
2018-04-28T23:51:18.709Z,18.22
2018-04-28T23:53:46.715Z,17.96
2018-04-28T23:56:14.813Z,17.93
2018-04-28T23:58:42.852Z,18.07
